Ana Sayfa
METAR-TAF:

METAR-TAF

Havaalanları :

Athens, Ohio, Amerika Birleşik Devletleri

Enlem: 39-12-43N, Boylam: 082-13-45W, yükseklik: 233 m

Güncel hava durumu gözlemi

Rapor saat 20:15 UTC de 18 dakika önce yapıldı.
Rüzgar güney/güneydoğudan 8 kt
Sıcaklık 10°C
Nem 53%
Basınç 1012 hPa
Görüş mesafesi: 16.1 km
4200 ft yükseklikte parçalı çok bulutlu
8500 ft yükseklikte çok bulutlu

METAR: KUNI 242015Z AUTO 16008KT 10SM BKN042 OVC085 10/01 A2989 RMK AO2 T00960005

Saat: 15:33 (20:33 UTC)


TAF: eksik

4.000'den fazla havaalanı için hava durumu gözlemleri ve tahminleri (METAR ve TAF raporları).

Kullanılabilir istasyonlar harita üzerinde sarı ve kırmızı noktalarla gösterilir.

İstasyonun adını görmek için fareyi noktanın üzerinde gezdirin.

Sonrasında hava gözlem ve tahminlerini görmek için tıklayın.

Haritayı değiştirmek için: yaklaştırmak için siyah artı işaretli yeşil düğmeye ve uzaklaştırmak için de eksi işaretli düğmeye hızla tıklayın; bitişik haritalar için yeşil okları kullanın.


METAR-TAF: